sensor_id;sensor_type;location;lat;lon;timestamp;P1;durP1;ratioP1;P2;durP2;ratioP2
417;SDS011;49;48.530;9.200;2023-08-30T00:01:14;18.97;;;15.17;;
417;SDS011;49;48.530;9.200;2023-08-30T00:03:41;20.97;;;16.53;;
417;SDS011;49;48.530;9.200;2023-08-30T00:06:08;18.30;;;15.57;;
417;SDS011;49;48.530;9.200;2023-08-30T00:08:35;21.03;;;16.50;;
417;SDS011;49;48.530;9.200;2023-08-30T00:11:04;27.87;;;19.00;;
417;SDS011;49;48.530;9.200;2023-08-30T00:13:31;24.63;;;17.07;;
417;SDS011;49;48.530;9.200;2023-08-30T00:15:59;21.77;;;17.33;;
417;SDS011;49;48.530;9.200;2023-08-30T00:18:27;18.90;;;16.50;;
417;SDS011;49;48.530;9.200;2023-08-30T00:20:55;23.20;;;17.93;;
417;SDS011;49;48.530;9.200;2023-08-30T00:23:23;22.97;;;17.30;;
417;SDS011;49;48.530;9.200;2023-08-30T00:25:50;24.43;;;16.67;;
417;SDS011;49;48.530;9.200;2023-08-30T00:28:18;22.53;;;16.50;;
417;SDS011;49;48.530;9.200;2023-08-30T00:30:46;18.77;;;16.43;;
417;SDS011;49;48.530;9.200;2023-08-30T00:33:13;21.07;;;16.47;;
417;SDS011;49;48.530;9.200;2023-08-30T00:35:40;21.63;;;17.27;;
417;SDS011;49;48.530;9.200;2023-08-30T00:38:10;19.93;;;16.57;;
417;SDS011;49;48.530;9.200;2023-08-30T00:40:37;21.63;;;17.63;;
417;SDS011;49;48.530;9.200;2023-08-30T00:43:05;25.67;;;19.63;;
417;SDS011;49;48.530;9.200;2023-08-30T00:45:37;22.63;;;18.10;;
417;SDS011;49;48.530;9.200;2023-08-30T00:48:06;33.63;;;19.37;;
417;SDS011;49;48.530;9.200;2023-08-30T00:50:34;22.13;;;17.67;;
417;SDS011;49;48.530;9.200;2023-08-30T00:53:01;29.47;;;18.27;;
417;SDS011;49;48.530;9.200;2023-08-30T00:55:30;26.87;;;19.00;;
417;SDS011;49;48.530;9.200;2023-08-30T00:58:01;24.23;;;18.53;;
417;SDS011;49;48.530;9.200;2023-08-30T01:00:29;22.47;;;18.60;;
417;SDS011;49;48.530;9.200;2023-08-30T01:02:57;25.90;;;19.20;;
417;SDS011;49;48.530;9.200;2023-08-30T01:05:28;23.73;;;18.40;;
417;SDS011;49;48.530;9.200;2023-08-30T01:07:54;28.70;;;19.30;;
417;SDS011;49;48.530;9.200;2023-08-30T01:10:24;24.60;;;19.43;;
417;SDS011;49;48.530;9.200;2023-08-30T01:13:00;26.80;;;19.40;;
417;SDS011;49;48.530;9.200;2023-08-30T01:15:32;27.77;;;19.87;;
417;SDS011;49;48.530;9.200;2023-08-30T01:18:05;24.67;;;18.50;;
417;SDS011;49;48.530;9.200;2023-08-30T01:20:36;28.80;;;19.03;;
417;SDS011;49;48.530;9.200;2023-08-30T01:23:06;23.53;;;19.30;;
417;SDS011;49;48.530;9.200;2023-08-30T01:25:40;32.00;;;19.63;;
417;SDS011;49;48.530;9.200;2023-08-30T01:28:16;26.83;;;20.20;;
417;SDS011;49;48.530;9.200;2023-08-30T01:30:47;21.27;;;18.50;;
417;SDS011;49;48.530;9.200;2023-08-30T01:33:15;23.13;;;19.90;;
417;SDS011;49;48.530;9.200;2023-08-30T01:35:44;26.90;;;20.80;;
417;SDS011;49;48.530;9.200;2023-08-30T01:38:12;25.60;;;21.10;;
417;SDS011;49;48.530;9.200;2023-08-30T01:40:43;24.57;;;19.90;;
417;SDS011;49;48.530;9.200;2023-08-30T01:43:13;26.00;;;20.80;;
417;SDS011;49;48.530;9.200;2023-08-30T01:45:44;31.83;;;21.50;;
417;SDS011;49;48.530;9.200;2023-08-30T01:48:12;26.40;;;20.90;;
417;SDS011;49;48.530;9.200;2023-08-30T01:50:41;35.63;;;23.07;;
417;SDS011;49;48.530;9.200;2023-08-30T01:53:10;30.80;;;23.10;;
417;SDS011;49;48.530;9.200;2023-08-30T01:55:38;31.33;;;22.47;;
417;SDS011;49;48.530;9.200;2023-08-30T01:58:06;34.07;;;24.23;;
417;SDS011;49;48.530;9.200;2023-08-30T02:00:34;33.93;;;24.60;;
417;SDS011;49;48.530;9.200;2023-08-30T02:03:10;31.53;;;24.40;;
417;SDS011;49;48.530;9.200;2023-08-30T02:05:39;29.97;;;24.20;;
417;SDS011;49;48.530;9.200;2023-08-30T02:08:15;32.93;;;25.63;;
417;SDS011;49;48.530;9.200;2023-08-30T02:10:44;36.00;;;25.40;;
417;SDS011;49;48.530;9.200;2023-08-30T02:13:16;37.13;;;26.07;;
417;SDS011;49;48.530;9.200;2023-08-30T02:15:47;34.90;;;24.77;;
417;SDS011;49;48.530;9.200;2023-08-30T02:18:17;34.97;;;25.97;;
417;SDS011;49;48.530;9.200;2023-08-30T02:20:44;36.63;;;25.90;;
417;SDS011;49;48.530;9.200;2023-08-30T02:23:15;32.40;;;23.03;;
417;SDS011;49;48.530;9.200;2023-08-30T02:25:42;32.40;;;23.60;;
417;SDS011;49;48.530;9.200;2023-08-30T02:28:09;36.17;;;24.53;;
417;SDS011;49;48.530;9.200;2023-08-30T02:30:37;34.93;;;23.87;;
417;SDS011;49;48.530;9.200;2023-08-30T02:33:07;30.13;;;22.80;;
417;SDS011;49;48.530;9.200;2023-08-30T02:35:35;31.27;;;23.27;;
417;SDS011;49;48.530;9.200;2023-08-30T02:38:03;37.40;;;22.20;;
417;SDS011;49;48.530;9.200;2023-08-30T02:40:30;31.83;;;24.00;;
417;SDS011;49;48.530;9.200;2023-08-30T02:42:57;30.30;;;22.20;;
417;SDS011;49;48.530;9.200;2023-08-30T02:45:25;29.47;;;22.77;;
417;SDS011;49;48.530;9.200;2023-08-30T02:47:54;30.87;;;22.63;;
417;SDS011;49;48.530;9.200;2023-08-30T02:50:22;28.90;;;21.70;;
417;SDS011;49;48.530;9.200;2023-08-30T02:52:50;37.53;;;22.70;;
417;SDS011;49;48.530;9.200;2023-08-30T02:55:18;30.50;;;21.77;;
417;SDS011;49;48.530;9.200;2023-08-30T02:57:45;27.40;;;21.70;;
417;SDS011;49;48.530;9.200;2023-08-30T03:00:13;32.23;;;22.63;;
417;SDS011;49;48.530;9.200;2023-08-30T03:02:41;31.30;;;23.43;;
417;SDS011;49;48.530;9.200;2023-08-30T03:05:08;34.50;;;22.77;;
417;SDS011;49;48.530;9.200;2023-08-30T03:07:37;34.57;;;23.27;;
417;SDS011;49;48.530;9.200;2023-08-30T03:10:06;34.23;;;22.70;;
417;SDS011;49;48.530;9.200;2023-08-30T03:12:33;34.03;;;24.43;;
417;SDS011;49;48.530;9.200;2023-08-30T03:15:01;37.80;;;23.30;;
417;SDS011;49;48.530;9.200;2023-08-30T03:17:29;32.67;;;24.33;;
417;SDS011;49;48.530;9.200;2023-08-30T03:19:56;31.90;;;23.40;;
417;SDS011;49;48.530;9.200;2023-08-30T03:22:23;32.23;;;24.27;;
417;SDS011;49;48.530;9.200;2023-08-30T03:24:51;32.50;;;23.47;;
417;SDS011;49;48.530;9.200;2023-08-30T03:27:19;32.90;;;24.97;;
417;SDS011;49;48.530;9.200;2023-08-30T03:29:46;31.17;;;23.30;;
417;SDS011;49;48.530;9.200;2023-08-30T03:32:15;34.93;;;23.50;;
417;SDS011;49;48.530;9.200;2023-08-30T03:34:43;38.73;;;23.70;;
417;SDS011;49;48.530;9.200;2023-08-30T03:37:11;29.00;;;21.77;;
417;SDS011;49;48.530;9.200;2023-08-30T03:39:39;35.07;;;22.47;;
417;SDS011;49;48.530;9.200;2023-08-30T03:42:07;27.57;;;22.27;;
417;SDS011;49;48.530;9.200;2023-08-30T03:44:37;28.80;;;22.17;;
417;SDS011;49;48.530;9.200;2023-08-30T03:47:04;28.80;;;22.30;;
417;SDS011;49;48.530;9.200;2023-08-30T03:49:31;32.40;;;23.40;;
417;SDS011;49;48.530;9.200;2023-08-30T03:51:58;36.20;;;23.67;;
417;SDS011;49;48.530;9.200;2023-08-30T03:54:28;30.37;;;22.87;;
417;SDS011;49;48.530;9.200;2023-08-30T03:56:56;26.00;;;21.60;;
417;SDS011;49;48.530;9.200;2023-08-30T03:59:23;33.00;;;23.90;;
417;SDS011;49;48.530;9.200;2023-08-30T04:01:55;31.03;;;22.40;;
417;SDS011;49;48.530;9.200;2023-08-30T04:04:24;32.63;;;23.07;;
417;SDS011;49;48.530;9.200;2023-08-30T04:06:51;29.50;;;22.20;;
417;SDS011;49;48.530;9.200;2023-08-30T04:09:19;39.00;;;23.33;;
417;SDS011;49;48.530;9.200;2023-08-30T04:11:46;34.90;;;23.43;;
417;SDS011;49;48.530;9.200;2023-08-30T04:14:13;30.80;;;21.80;;
417;SDS011;49;48.530;9.200;2023-08-30T04:16:41;35.77;;;25.67;;
417;SDS011;49;48.530;9.200;2023-08-30T04:19:09;49.87;;;23.00;;
417;SDS011;49;48.530;9.200;2023-08-30T04:21:36;30.40;;;23.47;;
417;SDS011;49;48.530;9.200;2023-08-30T04:24:04;33.20;;;22.73;;
417;SDS011;49;48.530;9.200;2023-08-30T04:26:32;35.93;;;23.17;;
417;SDS011;49;48.530;9.200;2023-08-30T04:28:59;30.80;;;22.50;;
417;SDS011;49;48.530;9.200;2023-08-30T04:31:28;29.57;;;22.33;;
417;SDS011;49;48.530;9.200;2023-08-30T04:33:55;30.60;;;22.83;;
417;SDS011;49;48.530;9.200;2023-08-30T04:36:26;33.83;;;24.37;;
417;SDS011;49;48.530;9.200;2023-08-30T04:38:53;32.43;;;23.37;;
417;SDS011;49;48.530;9.200;2023-08-30T04:41:20;30.97;;;23.20;;
417;SDS011;49;48.530;9.200;2023-08-30T04:43:48;35.77;;;24.07;;
417;SDS011;49;48.530;9.200;2023-08-30T04:46:15;36.97;;;23.57;;
417;SDS011;49;48.530;9.200;2023-08-30T04:48:42;38.03;;;24.30;;
417;SDS011;49;48.530;9.200;2023-08-30T04:51:10;48.70;;;24.33;;
417;SDS011;49;48.530;9.200;2023-08-30T04:53:38;35.70;;;24.10;;
417;SDS011;49;48.530;9.200;2023-08-30T04:56:11;34.70;;;24.17;;
417;SDS011;49;48.530;9.200;2023-08-30T04:58:38;28.13;;;19.93;;
417;SDS011;49;48.530;9.200;2023-08-30T05:01:05;28.97;;;21.10;;
417;SDS011;49;48.530;9.200;2023-08-30T05:03:33;29.63;;;23.60;;
417;SDS011;49;48.530;9.200;2023-08-30T05:06:01;28.23;;;20.33;;
417;SDS011;49;48.530;9.200;2023-08-30T05:08:28;38.33;;;20.13;;
417;SDS011;49;48.530;9.200;2023-08-30T05:10:57;21.03;;;14.60;;
417;SDS011;49;48.530;9.200;2023-08-30T05:13:24;44.77;;;18.03;;
417;SDS011;49;48.530;9.200;2023-08-30T05:15:51;39.53;;;30.70;;
417;SDS011;49;48.530;9.200;2023-08-30T05:18:18;39.10;;;29.77;;
417;SDS011;49;48.530;9.200;2023-08-30T05:20:46;24.77;;;19.10;;
417;SDS011;49;48.530;9.200;2023-08-30T05:23:13;20.50;;;15.57;;
417;SDS011;49;48.530;9.200;2023-08-30T05:25:40;18.33;;;14.10;;
417;SDS011;49;48.530;9.200;2023-08-30T05:28:09;15.47;;;12.63;;
417;SDS011;49;48.530;9.200;2023-08-30T05:30:37;12.60;;;11.50;;
417;SDS011;49;48.530;9.200;2023-08-30T05:33:06;14.93;;;12.20;;
417;SDS011;49;48.530;9.200;2023-08-30T05:35:33;17.50;;;12.50;;
417;SDS011;49;48.530;9.200;2023-08-30T05:38:00;15.63;;;12.67;;
417;SDS011;49;48.530;9.200;2023-08-30T05:40:27;15.83;;;11.90;;
417;SDS011;49;48.530;9.200;2023-08-30T05:42:55;19.30;;;12.50;;
417;SDS011;49;48.530;9.200;2023-08-30T05:45:23;15.57;;;10.63;;
417;SDS011;49;48.530;9.200;2023-08-30T05:47:50;13.60;;;10.13;;
417;SDS011;49;48.530;9.200;2023-08-30T05:50:17;16.50;;;10.20;;
417;SDS011;49;48.530;9.200;2023-08-30T05:52:44;12.27;;;10.90;;
417;SDS011;49;48.530;9.200;2023-08-30T05:55:14;14.20;;;10.73;;
417;SDS011;49;48.530;9.200;2023-08-30T05:57:41;16.57;;;10.60;;
417;SDS011;49;48.530;9.200;2023-08-30T06:00:08;11.40;;;8.90;;
417;SDS011;49;48.530;9.200;2023-08-30T06:02:37;10.40;;;9.50;;
417;SDS011;49;48.530;9.200;2023-08-30T06:05:07;14.43;;;8.60;;
417;SDS011;49;48.530;9.200;2023-08-30T06:07:35;18.27;;;9.53;;
417;SDS011;49;48.530;9.200;2023-08-30T06:10:02;12.93;;;8.77;;
417;SDS011;49;48.530;9.200;2023-08-30T06:12:30;16.63;;;8.83;;
417;SDS011;49;48.530;9.200;2023-08-30T06:14:57;10.73;;;8.63;;
417;SDS011;49;48.530;9.200;2023-08-30T06:17:24;11.67;;;8.67;;
417;SDS011;49;48.530;9.200;2023-08-30T06:19:53;15.43;;;8.90;;
417;SDS011;49;48.530;9.200;2023-08-30T06:22:23;19.03;;;9.13;;
417;SDS011;49;48.530;9.200;2023-08-30T06:24:50;14.20;;;8.13;;
417;SDS011;49;48.530;9.200;2023-08-30T06:27:17;16.50;;;7.93;;
417;SDS011;49;48.530;9.200;2023-08-30T06:29:45;10.63;;;8.00;;
417;SDS011;49;48.530;9.200;2023-08-30T06:32:12;11.70;;;7.77;;
417;SDS011;49;48.530;9.200;2023-08-30T06:34:39;9.60;;;8.03;;
417;SDS011;49;48.530;9.200;2023-08-30T06:37:08;9.83;;;9.00;;
417;SDS011;49;48.530;9.200;2023-08-30T06:39:35;11.40;;;8.30;;
417;SDS011;49;48.530;9.200;2023-08-30T06:42:03;10.90;;;9.33;;
417;SDS011;49;48.530;9.200;2023-08-30T06:44:30;11.47;;;8.60;;
417;SDS011;49;48.530;9.200;2023-08-30T06:46:57;11.23;;;8.77;;
417;SDS011;49;48.530;9.200;2023-08-30T06:49:24;12.47;;;9.90;;
417;SDS011;49;48.530;9.200;2023-08-30T06:51:52;13.77;;;9.90;;
417;SDS011;49;48.530;9.200;2023-08-30T06:54:20;15.13;;;8.30;;
417;SDS011;49;48.530;9.200;2023-08-30T06:56:56;10.47;;;7.60;;
417;SDS011;49;48.530;9.200;2023-08-30T06:59:27;13.30;;;8.07;;
417;SDS011;49;48.530;9.200;2023-08-30T07:01:55;12.23;;;9.10;;
417;SDS011;49;48.530;9.200;2023-08-30T07:04:22;10.93;;;7.90;;
417;SDS011;49;48.530;9.200;2023-08-30T07:06:53;8.80;;;7.67;;
417;SDS011;49;48.530;9.200;2023-08-30T07:09:22;13.10;;;7.73;;
417;SDS011;49;48.530;9.200;2023-08-30T07:11:53;11.43;;;7.77;;
417;SDS011;49;48.530;9.200;2023-08-30T07:14:21;8.83;;;7.27;;
417;SDS011;49;48.530;9.200;2023-08-30T07:16:51;16.23;;;8.00;;
417;SDS011;49;48.530;9.200;2023-08-30T07:19:20;7.87;;;6.80;;
417;SDS011;49;48.530;9.200;2023-08-30T07:21:47;9.20;;;6.83;;
417;SDS011;49;48.530;9.200;2023-08-30T07:24:14;9.50;;;7.03;;
417;SDS011;49;48.530;9.200;2023-08-30T07:26:43;10.17;;;6.63;;
417;SDS011;49;48.530;9.200;2023-08-30T07:29:10;19.70;;;9.30;;
417;SDS011;49;48.530;9.200;2023-08-30T07:31:37;14.27;;;7.80;;
417;SDS011;49;48.530;9.200;2023-08-30T07:34:06;14.83;;;6.80;;
417;SDS011;49;48.530;9.200;2023-08-30T07:36:33;8.70;;;7.00;;
417;SDS011;49;48.530;9.200;2023-08-30T07:39:02;11.80;;;7.07;;
417;SDS011;49;48.530;9.200;2023-08-30T07:41:30;12.30;;;7.20;;
417;SDS011;49;48.530;9.200;2023-08-30T07:44:01;8.50;;;6.00;;
417;SDS011;49;48.530;9.200;2023-08-30T07:46:29;8.00;;;6.13;;
417;SDS011;49;48.530;9.200;2023-08-30T07:48:56;14.53;;;6.70;;
417;SDS011;49;48.530;9.200;2023-08-30T07:51:23;9.90;;;6.37;;
417;SDS011;49;48.530;9.200;2023-08-30T07:53:50;14.57;;;6.47;;
417;SDS011;49;48.530;9.200;2023-08-30T07:56:18;9.50;;;6.00;;
417;SDS011;49;48.530;9.200;2023-08-30T07:58:45;8.70;;;5.80;;
417;SDS011;49;48.530;9.200;2023-08-30T08:01:15;6.20;;;5.20;;
417;SDS011;49;48.530;9.200;2023-08-30T08:03:42;8.63;;;5.47;;
417;SDS011;49;48.530;9.200;2023-08-30T08:06:13;15.70;;;5.60;;
417;SDS011;49;48.530;9.200;2023-08-30T08:08:40;6.07;;;5.07;;
417;SDS011;49;48.530;9.200;2023-08-30T08:11:07;9.40;;;5.20;;
417;SDS011;49;48.530;9.200;2023-08-30T08:13:34;5.80;;;5.13;;
417;SDS011;49;48.530;9.200;2023-08-30T08:16:02;7.50;;;5.17;;
417;SDS011;49;48.530;9.200;2023-08-30T08:18:30;5.60;;;4.90;;
417;SDS011;49;48.530;9.200;2023-08-30T08:20:57;5.73;;;4.80;;
417;SDS011;49;48.530;9.200;2023-08-30T08:23:25;7.60;;;5.20;;
417;SDS011;49;48.530;9.200;2023-08-30T08:25:56;10.70;;;5.87;;
417;SDS011;49;48.530;9.200;2023-08-30T08:28:23;7.50;;;5.63;;
417;SDS011;49;48.530;9.200;2023-08-30T08:30:50;7.80;;;5.13;;
417;SDS011;49;48.530;9.200;2023-08-30T08:33:17;13.30;;;5.20;;
417;SDS011;49;48.530;9.200;2023-08-30T08:35:47;7.47;;;5.03;;
417;SDS011;49;48.530;9.200;2023-08-30T08:38:14;7.40;;;4.30;;
417;SDS011;49;48.530;9.200;2023-08-30T08:40:41;4.60;;;4.23;;
417;SDS011;49;48.530;9.200;2023-08-30T08:43:09;6.30;;;4.07;;
417;SDS011;49;48.530;9.200;2023-08-30T08:45:36;5.43;;;4.13;;
417;SDS011;49;48.530;9.200;2023-08-30T08:48:03;4.77;;;4.43;;
417;SDS011;49;48.530;9.200;2023-08-30T08:50:31;11.40;;;5.10;;
417;SDS011;49;48.530;9.200;2023-08-30T08:53:00;6.93;;;4.30;;
417;SDS011;49;48.530;9.200;2023-08-30T08:55:29;6.53;;;3.73;;
417;SDS011;49;48.530;9.200;2023-08-30T08:57:57;6.30;;;4.30;;
417;SDS011;49;48.530;9.200;2023-08-30T09:00:24;7.57;;;4.10;;
417;SDS011;49;48.530;9.200;2023-08-30T09:02:53;6.27;;;4.40;;
417;SDS011;49;48.530;9.200;2023-08-30T09:05:21;8.80;;;4.23;;
417;SDS011;49;48.530;9.200;2023-08-30T09:07:48;5.90;;;4.13;;
417;SDS011;49;48.530;9.200;2023-08-30T09:10:20;5.97;;;3.70;;
417;SDS011;49;48.530;9.200;2023-08-30T09:12:47;3.87;;;3.50;;
417;SDS011;49;48.530;9.200;2023-08-30T09:15:14;6.63;;;3.77;;
417;SDS011;49;48.530;9.200;2023-08-30T09:17:42;8.17;;;3.50;;
417;SDS011;49;48.530;9.200;2023-08-30T09:20:09;9.47;;;4.10;;
417;SDS011;49;48.530;9.200;2023-08-30T09:22:38;8.87;;;3.90;;
417;SDS011;49;48.530;9.200;2023-08-30T09:25:06;5.23;;;3.30;;
417;SDS011;49;48.530;9.200;2023-08-30T09:27:36;8.50;;;4.03;;
417;SDS011;49;48.530;9.200;2023-08-30T09:30:06;5.10;;;3.67;;
417;SDS011;49;48.530;9.200;2023-08-30T09:32:39;4.80;;;3.70;;
417;SDS011;49;48.530;9.200;2023-08-30T09:35:07;4.60;;;3.70;;
417;SDS011;49;48.530;9.200;2023-08-30T09:37:35;6.70;;;3.87;;
417;SDS011;49;48.530;9.200;2023-08-30T09:40:02;5.00;;;3.77;;
417;SDS011;49;48.530;9.200;2023-08-30T09:42:30;5.20;;;3.97;;
417;SDS011;49;48.530;9.200;2023-08-30T09:44:59;7.33;;;3.87;;
417;SDS011;49;48.530;9.200;2023-08-30T09:47:26;5.70;;;3.80;;
417;SDS011;49;48.530;9.200;2023-08-30T09:49:54;5.90;;;4.50;;
417;SDS011;49;48.530;9.200;2023-08-30T09:52:23;4.10;;;3.60;;
417;SDS011;49;48.530;9.200;2023-08-30T09:54:51;3.73;;;3.10;;
417;SDS011;49;48.530;9.200;2023-08-30T09:57:18;5.47;;;3.53;;
417;SDS011;49;48.530;9.200;2023-08-30T09:59:46;4.30;;;3.57;;
417;SDS011;49;48.530;9.200;2023-08-30T10:02:16;4.63;;;3.40;;
417;SDS011;49;48.530;9.200;2023-08-30T10:04:44;4.80;;;3.43;;
417;SDS011;49;48.530;9.200;2023-08-30T10:07:12;5.47;;;3.93;;
417;SDS011;49;48.530;9.200;2023-08-30T10:09:40;7.33;;;4.33;;
417;SDS011;49;48.530;9.200;2023-08-30T10:12:08;4.63;;;4.17;;
417;SDS011;49;48.530;9.200;2023-08-30T10:14:36;6.57;;;3.43;;
417;SDS011;49;48.530;9.200;2023-08-30T10:17:03;3.77;;;2.70;;
417;SDS011;49;48.530;9.200;2023-08-30T10:19:35;3.80;;;3.00;;
417;SDS011;49;48.530;9.200;2023-08-30T10:22:04;9.07;;;3.37;;
417;SDS011;49;48.530;9.200;2023-08-30T10:24:35;5.57;;;3.60;;
417;SDS011;49;48.530;9.200;2023-08-30T10:27:05;5.37;;;3.40;;
417;SDS011;49;48.530;9.200;2023-08-30T10:29:34;4.40;;;3.53;;
417;SDS011;49;48.530;9.200;2023-08-30T10:32:03;4.27;;;3.57;;
417;SDS011;49;48.530;9.200;2023-08-30T10:34:31;8.40;;;3.37;;
417;SDS011;49;48.530;9.200;2023-08-30T10:37:01;5.47;;;3.60;;
417;SDS011;49;48.530;9.200;2023-08-30T10:39:35;3.87;;;3.40;;
417;SDS011;49;48.530;9.200;2023-08-30T10:42:07;3.80;;;2.90;;
417;SDS011;49;48.530;9.200;2023-08-30T10:44:35;5.53;;;3.53;;
417;SDS011;49;48.530;9.200;2023-08-30T10:47:18;3.97;;;2.80;;
417;SDS011;49;48.530;9.200;2023-08-30T10:49:46;5.70;;;3.00;;
417;SDS011;49;48.530;9.200;2023-08-30T10:52:15;7.30;;;3.63;;
417;SDS011;49;48.530;9.200;2023-08-30T10:54:42;6.63;;;3.40;;
417;SDS011;49;48.530;9.200;2023-08-30T10:57:12;4.07;;;3.20;;
417;SDS011;49;48.530;9.200;2023-08-30T10:59:47;4.87;;;3.20;;
417;SDS011;49;48.530;9.200;2023-08-30T11:02:30;9.57;;;3.57;;
417;SDS011;49;48.530;9.200;2023-08-30T11:04:57;7.43;;;3.23;;
417;SDS011;49;48.530;9.200;2023-08-30T11:07:26;7.47;;;3.30;;
417;SDS011;49;48.530;9.200;2023-08-30T11:09:53;5.93;;;3.27;;
417;SDS011;49;48.530;9.200;2023-08-30T11:12:21;4.17;;;3.20;;
417;SDS011;49;48.530;9.200;2023-08-30T11:14:48;7.33;;;3.10;;
417;SDS011;49;48.530;9.200;2023-08-30T11:17:15;5.37;;;3.30;;
417;SDS011;49;48.530;9.200;2023-08-30T11:19:43;4.00;;;3.10;;
417;SDS011;49;48.530;9.200;2023-08-30T11:22:10;3.73;;;3.00;;
417;SDS011;49;48.530;9.200;2023-08-30T11:24:42;3.77;;;3.10;;
417;SDS011;49;48.530;9.200;2023-08-30T11:27:09;4.03;;;3.10;;
417;SDS011;49;48.530;9.200;2023-08-30T11:29:39;5.87;;;2.90;;
417;SDS011;49;48.530;9.200;2023-08-30T11:32:07;3.47;;;2.80;;
417;SDS011;49;48.530;9.200;2023-08-30T11:34:34;3.70;;;2.70;;
417;SDS011;49;48.530;9.200;2023-08-30T11:37:01;3.00;;;2.50;;
417;SDS011;49;48.530;9.200;2023-08-30T11:39:28;5.10;;;2.53;;
417;SDS011;49;48.530;9.200;2023-08-30T11:41:57;4.50;;;2.70;;
417;SDS011;49;48.530;9.200;2023-08-30T11:44:24;3.40;;;2.30;;
417;SDS011;49;48.530;9.200;2023-08-30T11:46:57;3.40;;;2.90;;
417;SDS011;49;48.530;9.200;2023-08-30T11:49:25;3.70;;;3.10;;
417;SDS011;49;48.530;9.200;2023-08-30T11:51:53;6.20;;;3.03;;
417;SDS011;49;48.530;9.200;2023-08-30T11:54:21;3.50;;;2.60;;
417;SDS011;49;48.530;9.200;2023-08-30T11:56:49;4.77;;;3.03;;
417;SDS011;49;48.530;9.200;2023-08-30T11:59:21;5.10;;;2.63;;
417;SDS011;49;48.530;9.200;2023-08-30T12:01:48;3.87;;;2.93;;
417;SDS011;49;48.530;9.200;2023-08-30T12:04:18;5.23;;;3.00;;
417;SDS011;49;48.530;9.200;2023-08-30T12:06:50;4.80;;;2.40;;
417;SDS011;49;48.530;9.200;2023-08-30T12:09:18;2.97;;;2.43;;
417;SDS011;49;48.530;9.200;2023-08-30T12:11:46;4.83;;;3.00;;
417;SDS011;49;48.530;9.200;2023-08-30T12:14:13;3.33;;;2.67;;
417;SDS011;49;48.530;9.200;2023-08-30T12:16:42;4.00;;;2.60;;
417;SDS011;49;48.530;9.200;2023-08-30T12:19:11;4.73;;;2.80;;
417;SDS011;49;48.530;9.200;2023-08-30T12:21:41;3.37;;;2.60;;
417;SDS011;49;48.530;9.200;2023-08-30T12:24:08;3.80;;;2.47;;
417;SDS011;49;48.530;9.200;2023-08-30T12:26:35;4.97;;;3.03;;
417;SDS011;49;48.530;9.200;2023-08-30T12:29:03;5.80;;;3.13;;
417;SDS011;49;48.530;9.200;2023-08-30T12:31:31;7.00;;;3.40;;
417;SDS011;49;48.530;9.200;2023-08-30T12:33:59;3.27;;;2.43;;
417;SDS011;49;48.530;9.200;2023-08-30T12:36:26;3.67;;;3.10;;
417;SDS011;49;48.530;9.200;2023-08-30T12:38:54;3.80;;;2.70;;
417;SDS011;49;48.530;9.200;2023-08-30T12:41:23;2.60;;;2.47;;
417;SDS011;49;48.530;9.200;2023-08-30T12:43:51;3.63;;;2.77;;
417;SDS011;49;48.530;9.200;2023-08-30T12:46:19;2.83;;;2.23;;
417;SDS011;49;48.530;9.200;2023-08-30T12:48:46;4.13;;;1.90;;
417;SDS011;49;48.530;9.200;2023-08-30T12:51:14;2.57;;;2.20;;
417;SDS011;49;48.530;9.200;2023-08-30T12:53:41;4.37;;;2.40;;
417;SDS011;49;48.530;9.200;2023-08-30T12:56:08;2.73;;;2.27;;
417;SDS011;49;48.530;9.200;2023-08-30T12:58:35;3.40;;;2.27;;
417;SDS011;49;48.530;9.200;2023-08-30T13:01:02;6.33;;;2.00;;
417;SDS011;49;48.530;9.200;2023-08-30T13:03:29;2.73;;;1.80;;
417;SDS011;49;48.530;9.200;2023-08-30T13:05:56;3.17;;;2.40;;
417;SDS011;49;48.530;9.200;2023-08-30T13:08:26;2.60;;;2.23;;
417;SDS011;49;48.530;9.200;2023-08-30T13:10:53;2.20;;;2.00;;
417;SDS011;49;48.530;9.200;2023-08-30T13:13:20;3.80;;;2.37;;
417;SDS011;49;48.530;9.200;2023-08-30T13:15:47;2.80;;;2.20;;
417;SDS011;49;48.530;9.200;2023-08-30T13:18:14;4.83;;;2.27;;
417;SDS011;49;48.530;9.200;2023-08-30T13:20:42;2.40;;;2.20;;
417;SDS011;49;48.530;9.200;2023-08-30T13:23:10;2.80;;;2.10;;
417;SDS011;49;48.530;9.200;2023-08-30T13:25:42;3.43;;;2.23;;
417;SDS011;49;48.530;9.200;2023-08-30T13:28:09;4.20;;;2.40;;
417;SDS011;49;48.530;9.200;2023-08-30T13:30:36;3.00;;;2.23;;
417;SDS011;49;48.530;9.200;2023-08-30T13:33:09;3.00;;;2.40;;
417;SDS011;49;48.530;9.200;2023-08-30T13:35:38;2.67;;;2.50;;
417;SDS011;49;48.530;9.200;2023-08-30T13:38:05;10.30;;;2.50;;
417;SDS011;49;48.530;9.200;2023-08-30T13:40:32;3.87;;;2.50;;
417;SDS011;49;48.530;9.200;2023-08-30T13:43:01;2.50;;;2.30;;
417;SDS011;49;48.530;9.200;2023-08-30T13:45:28;5.23;;;2.70;;
417;SDS011;49;48.530;9.200;2023-08-30T13:47:55;4.17;;;2.63;;
417;SDS011;49;48.530;9.200;2023-08-30T13:50:22;2.43;;;2.30;;
417;SDS011;49;48.530;9.200;2023-08-30T13:52:51;3.40;;;2.50;;
417;SDS011;49;48.530;9.200;2023-08-30T13:55:18;8.83;;;2.70;;
417;SDS011;49;48.530;9.200;2023-08-30T13:57:45;3.97;;;2.40;;
417;SDS011;49;48.530;9.200;2023-08-30T14:00:15;2.40;;;2.20;;
417;SDS011;49;48.530;9.200;2023-08-30T14:02:42;3.20;;;2.40;;
417;SDS011;49;48.530;9.200;2023-08-30T14:05:09;4.67;;;2.50;;
417;SDS011;49;48.530;9.200;2023-08-30T14:07:36;3.37;;;2.60;;
417;SDS011;49;48.530;9.200;2023-08-30T14:10:03;2.67;;;2.50;;
417;SDS011;49;48.530;9.200;2023-08-30T14:12:31;3.50;;;2.30;;
417;SDS011;49;48.530;9.200;2023-08-30T14:14:59;4.00;;;2.90;;
417;SDS011;49;48.530;9.200;2023-08-30T14:17:27;2.80;;;2.50;;
417;SDS011;49;48.530;9.200;2023-08-30T14:19:54;4.93;;;2.70;;
417;SDS011;49;48.530;9.200;2023-08-30T14:22:22;4.10;;;2.77;;
417;SDS011;49;48.530;9.200;2023-08-30T14:24:49;2.57;;;2.40;;
417;SDS011;49;48.530;9.200;2023-08-30T14:27:16;3.67;;;2.27;;
417;SDS011;49;48.530;9.200;2023-08-30T14:29:43;2.67;;;2.53;;
417;SDS011;49;48.530;9.200;2023-08-30T14:32:10;3.90;;;2.43;;
417;SDS011;49;48.530;9.200;2023-08-30T14:34:39;4.07;;;3.20;;
417;SDS011;49;48.530;9.200;2023-08-30T14:37:06;5.93;;;2.40;;
417;SDS011;49;48.530;9.200;2023-08-30T14:39:33;2.83;;;2.40;;
417;SDS011;49;48.530;9.200;2023-08-30T14:42:00;3.27;;;2.50;;
417;SDS011;49;48.530;9.200;2023-08-30T14:44:27;5.13;;;3.03;;
417;SDS011;49;48.530;9.200;2023-08-30T14:46:54;5.77;;;2.80;;
417;SDS011;49;48.530;9.200;2023-08-30T14:49:21;3.83;;;2.70;;
417;SDS011;49;48.530;9.200;2023-08-30T14:51:49;4.30;;;2.53;;
417;SDS011;49;48.530;9.200;2023-08-30T14:54:17;5.10;;;2.67;;
417;SDS011;49;48.530;9.200;2023-08-30T14:56:44;3.10;;;2.60;;
417;SDS011;49;48.530;9.200;2023-08-30T14:59:11;3.07;;;2.40;;
417;SDS011;49;48.530;9.200;2023-08-30T15:01:38;2.53;;;2.23;;
417;SDS011;49;48.530;9.200;2023-08-30T15:04:05;2.63;;;2.47;;
417;SDS011;49;48.530;9.200;2023-08-30T15:06:32;4.37;;;2.70;;
417;SDS011;49;48.530;9.200;2023-08-30T15:09:00;4.10;;;3.13;;
417;SDS011;49;48.530;9.200;2023-08-30T15:11:28;5.40;;;2.60;;
417;SDS011;49;48.530;9.200;2023-08-30T15:13:55;13.53;;;3.40;;
417;SDS011;49;48.530;9.200;2023-08-30T15:16:22;4.70;;;2.63;;
417;SDS011;49;48.530;9.200;2023-08-30T15:18:49;4.40;;;2.60;;
417;SDS011;49;48.530;9.200;2023-08-30T15:21:16;3.50;;;2.90;;
417;SDS011;49;48.530;9.200;2023-08-30T15:23:43;13.00;;;3.97;;
417;SDS011;49;48.530;9.200;2023-08-30T15:26:12;10.87;;;3.07;;
417;SDS011;49;48.530;9.200;2023-08-30T15:28:42;6.73;;;3.57;;
417;SDS011;49;48.530;9.200;2023-08-30T15:31:11;9.50;;;3.37;;
417;SDS011;49;48.530;9.200;2023-08-30T15:33:38;7.67;;;4.20;;
417;SDS011;49;48.530;9.200;2023-08-30T15:36:05;6.50;;;3.57;;
417;SDS011;49;48.530;9.200;2023-08-30T15:38:32;6.90;;;3.80;;
417;SDS011;49;48.530;9.200;2023-08-30T15:41:03;5.30;;;3.40;;
417;SDS011;49;48.530;9.200;2023-08-30T15:43:36;4.47;;;3.70;;
417;SDS011;49;48.530;9.200;2023-08-30T15:46:05;7.63;;;3.87;;
417;SDS011;49;48.530;9.200;2023-08-30T15:48:33;7.57;;;4.37;;
417;SDS011;49;48.530;9.200;2023-08-30T15:51:02;5.30;;;3.90;;
417;SDS011;49;48.530;9.200;2023-08-30T15:53:29;8.33;;;4.20;;